Time;durP1;ratioP1;P1;durP2;ratioP2;P2;SDS_P1;SDS_P2;PMS_P1;PMS_P2;Temp;Humidity;BMP_temperature;BMP_pressure;BME280_temperature;BME280_humidity;BME280_pressure;Samples;Min_cycle;Max_cycle;Signal;HPM_P1;HPM_P2
2022/03/22 00:01:12;;;;;;;44.20;33.10;;;5.90;99.90;;;;;;4998159;28;20161;-68
2022/03/22 00:03:37;;;;;;;46.38;34.58;;;5.90;99.90;;;;;;4996290;28;20348;-68
2022/03/22 00:06:03;;;;;;;44.67;35.08;;;5.80;99.90;;;;;;4998677;28;20045;-68
2022/03/22 00:08:29;;;;;;;48.83;36.13;;;5.80;99.90;;;;;;4999679;28;20092;-68
2022/03/22 00:10:55;;;;;;;59.53;39.00;;;5.80;99.90;;;;;;4997902;28;20072;-68
2022/03/22 00:13:21;;;;;;;50.00;37.88;;;5.80;99.90;;;;;;4998276;28;20037;-68
2022/03/22 00:15:48;;;;;;;50.53;36.35;;;5.80;99.90;;;;;;5001056;28;20053;-68
2022/03/22 00:18:14;;;;;;;54.35;39.63;;;5.70;99.90;;;;;;5001599;28;20049;-68
2022/03/22 00:20:42;;;;;;;54.88;39.50;;;5.70;99.90;;;;;;5034655;28;20034;-68
2022/03/22 00:23:07;;;;;;;45.33;35.55;;;5.80;99.90;;;;;;4998794;28;20075;-68
2022/03/22 00:25:33;;;;;;;48.05;36.85;;;5.80;99.90;;;;;;5037534;28;20193;-68
2022/03/22 00:28:01;;;;;;;47.10;32.50;;;5.80;99.90;;;;;;5000563;28;20034;-68
2022/03/22 00:30:33;;;;;;;50.72;35.97;;;5.80;99.90;;;;;;5002594;28;20339;-68
2022/03/22 00:33:02;;;;;;;49.58;37.85;;;5.70;99.90;;;;;;5033002;28;20081;-68
2022/03/22 00:35:29;;;;;;;52.97;38.63;;;5.70;99.90;;;;;;5002288;28;20048;-68
2022/03/22 00:38:00;;;;;;;51.20;37.38;;;5.70;99.90;;;;;;4995892;28;20089;-68
2022/03/22 00:40:28;;;;;;;46.72;35.50;;;5.80;99.90;;;;;;5000214;28;20038;-68
2022/03/22 00:42:54;;;;;;;47.05;35.42;;;5.70;99.90;;;;;;4995798;28;20096;-68
2022/03/22 00:45:27;;;;;;;51.00;36.20;;;5.70;99.90;;;;;;5036238;28;20050;-68
2022/03/22 00:47:54;;;;;;;47.28;34.53;;;5.70;99.90;;;;;;5028010;28;20050;-68
2022/03/22 00:50:27;;;;;;;43.38;34.30;;;5.70;99.90;;;;;;5004552;28;20054;-68
2022/03/22 00:52:53;;;;;;;42.28;33.20;;;5.70;99.90;;;;;;5030338;28;20046;-68
2022/03/22 00:55:23;;;;;;;49.25;35.60;;;5.60;99.90;;;;;;5031319;28;20096;-68
2022/03/22 00:57:49;;;;;;;46.25;36.50;;;5.60;99.90;;;;;;5001900;28;20121;-68
2022/03/22 01:00:15;;;;;;;46.38;35.33;;;5.60;99.90;;;;;;5001078;28;20093;-68
2022/03/22 01:02:45;;;;;;;51.63;35.92;;;5.60;99.90;;;;;;4998465;28;20474;-68
2022/03/22 01:05:13;;;;;;;53.72;37.33;;;5.60;99.90;;;;;;4999101;28;20064;-68
2022/03/22 01:07:41;;;;;;;48.15;36.88;;;5.60;99.90;;;;;;4998668;28;20468;-68
2022/03/22 01:10:09;;;;;;;44.45;35.63;;;5.60;99.90;;;;;;4999908;28;20049;-68
2022/03/22 01:12:37;;;;;;;47.53;36.22;;;5.60;99.90;;;;;;4997704;28;20533;-68
2022/03/22 01:15:06;;;;;;;45.47;34.28;;;5.60;99.90;;;;;;5001090;28;20096;-68
2022/03/22 01:17:33;;;;;;;45.05;34.38;;;5.50;99.90;;;;;;5000584;28;20658;-68
2022/03/22 01:19:59;;;;;;;49.35;36.70;;;5.50;99.90;;;;;;4997339;28;20046;-68
2022/03/22 01:22:26;;;;;;;50.33;37.80;;;5.50;99.90;;;;;;4996743;28;20042;-68
2022/03/22 01:24:52;;;;;;;45.00;35.40;;;5.40;99.90;;;;;;5003159;28;20053;-68
2022/03/22 01:27:22;;;;;;;47.63;35.45;;;5.40;99.90;;;;;;5002854;28;20081;-68
2022/03/22 01:29:51;;;;;;;52.92;37.70;;;5.40;99.90;;;;;;4995602;28;20320;-68
2022/03/22 01:32:16;;;;;;;46.47;35.85;;;5.30;99.90;;;;;;5001914;28;20073;-68
2022/03/22 01:34:42;;;;;;;45.13;34.45;;;5.40;99.90;;;;;;5027297;28;20070;-68
2022/03/22 01:37:09;;;;;;;49.50;35.58;;;5.40;99.90;;;;;;4993895;28;20046;-68
2022/03/22 01:39:35;;;;;;;49.47;37.42;;;5.40;99.90;;;;;;4995366;28;20046;-68
2022/03/22 01:42:00;;;;;;;44.50;34.38;;;5.30;99.90;;;;;;5001633;28;20049;-68
2022/03/22 01:44:28;;;;;;;49.80;36.92;;;5.30;99.90;;;;;;4997769;28;20401;-68
2022/03/22 01:46:58;;;;;;;48.58;36.65;;;5.30;99.90;;;;;;5004246;28;20053;-68
2022/03/22 01:49:24;;;;;;;53.85;37.55;;;5.30;99.90;;;;;;5026855;28;20058;-68
2022/03/22 01:51:52;;;;;;;48.60;36.92;;;5.30;99.90;;;;;;5029540;28;20069;-68
2022/03/22 01:54:18;;;;;;;42.97;34.22;;;5.30;99.90;;;;;;5008504;28;20042;-68
2022/03/22 01:56:44;;;;;;;46.47;36.50;;;5.30;99.90;;;;;;5030267;28;20073;-68
2022/03/22 01:59:10;;;;;;;49.83;35.72;;;5.30;99.90;;;;;;4996921;28;20437;-68
2022/03/22 02:07:06;;;;;;;46.55;35.38;;;5.20;99.90;;;;;;5000294;28;20569;-67
2022/03/22 02:09:33;;;;;;;47.40;36.22;;;5.20;99.90;;;;;;4997917;28;20038;-67
2022/03/22 02:11:59;;;;;;;46.90;34.65;;;5.20;99.90;;;;;;5029301;28;20092;-67
2022/03/22 02:14:25;;;;;;;44.88;35.95;;;5.20;99.90;;;;;;4999853;28;20493;-67
2022/03/22 02:16:51;;;;;;;41.03;33.92;;;5.10;99.90;;;;;;4995195;28;20432;-67
2022/03/22 02:19:17;;;;;;;43.40;34.83;;;5.10;99.90;;;;;;5003463;28;20068;-67
2022/03/22 02:21:43;;;;;;;47.47;37.25;;;5.10;99.90;;;;;;5007922;28;20034;-67
2022/03/22 02:24:09;;;;;;;47.00;34.95;;;5.10;99.90;;;;;;5035090;28;20100;-67
2022/03/22 02:26:36;;;;;;;44.72;35.70;;;5.10;99.90;;;;;;5000172;28;20470;-67
2022/03/22 02:29:03;;;;;;;45.75;36.53;;;5.00;99.90;;;;;;5033895;28;20108;-67
2022/03/22 02:31:30;;;;;;;45.63;34.63;;;5.00;99.90;;;;;;4996696;28;20884;-67
2022/03/22 02:33:57;;;;;;;50.33;37.15;;;5.00;99.90;;;;;;5006714;28;20405;-67
2022/03/22 02:36:24;;;;;;;49.03;38.08;;;5.00;99.90;;;;;;5032507;28;20069;-67
2022/03/22 02:38:50;;;;;;;46.67;36.63;;;5.00;99.90;;;;;;5005881;28;20096;-67
2022/03/22 02:41:21;;;;;;;47.05;36.45;;;5.00;99.90;;;;;;5001438;28;20045;-67
2022/03/22 02:43:48;;;;;;;48.22;37.25;;;5.00;99.90;;;;;;5002819;28;20038;-67
2022/03/22 02:46:14;;;;;;;48.60;37.08;;;4.90;99.90;;;;;;4977638;28;20057;-67
2022/03/22 02:48:41;;;;;;;49.40;36.70;;;4.90;99.90;;;;;;5039676;28;20080;-67
2022/03/22 02:51:07;;;;;;;45.35;34.25;;;4.90;99.90;;;;;;5004513;28;20042;-67
2022/03/22 02:53:33;;;;;;;50.33;35.40;;;4.90;99.90;;;;;;5033191;28;20041;-67
2022/03/22 02:55:59;;;;;;;48.10;36.95;;;4.90;99.90;;;;;;5003885;28;20042;-67
2022/03/22 02:58:25;;;;;;;48.63;38.03;;;4.80;99.90;;;;;;5032731;28;20046;-67
2022/03/22 03:00:51;;;;;;;46.33;36.60;;;4.80;99.90;;;;;;5035882;28;20048;-67
2022/03/22 03:03:21;;;;;;;45.35;36.58;;;4.80;99.90;;;;;;5029953;28;20521;-67
2022/03/22 03:05:49;;;;;;;48.97;37.30;;;4.80;99.90;;;;;;5007159;28;20045;-67
2022/03/22 03:08:15;;;;;;;47.90;36.67;;;4.80;99.90;;;;;;4999150;28;20482;-67
2022/03/22 03:10:42;;;;;;;50.67;38.30;;;4.80;99.90;;;;;;5005510;28;20508;-67
2022/03/22 03:13:08;;;;;;;47.88;38.20;;;4.80;99.90;;;;;;5029979;28;20089;-67
2022/03/22 03:15:34;;;;;;;42.42;34.40;;;4.80;99.90;;;;;;5031039;28;20038;-67
2022/03/22 03:17:59;;;;;;;46.80;36.10;;;4.80;99.90;;;;;;5030742;28;20068;-67
2022/03/22 03:20:26;;;;;;;49.20;38.72;;;4.80;99.90;;;;;;5001135;28;20509;-67
2022/03/22 03:22:52;;;;;;;46.15;35.72;;;4.80;99.90;;;;;;5031861;28;20502;-67
2022/03/22 03:25:18;;;;;;;48.45;37.05;;;4.80;99.90;;;;;;5003016;28;20050;-67
2022/03/22 03:27:44;;;;;;;48.67;38.28;;;4.80;99.90;;;;;;4994345;28;20141;-67
2022/03/22 03:30:10;;;;;;;43.90;35.28;;;4.80;99.90;;;;;;5027333;28;20130;-67
2022/03/22 03:32:36;;;;;;;49.28;37.55;;;4.80;99.90;;;;;;5004848;28;20045;-67
2022/03/22 03:35:03;;;;;;;43.40;35.58;;;4.80;99.90;;;;;;4998330;28;20057;-67
2022/03/22 03:37:34;;;;;;;44.88;36.25;;;4.70;99.90;;;;;;4994360;28;20369;-67
2022/03/22 03:39:59;;;;;;;45.13;36.33;;;4.70;99.90;;;;;;5000612;28;20121;-67
2022/03/22 03:42:25;;;;;;;44.47;36.35;;;4.70;99.90;;;;;;4999787;28;20559;-67
2022/03/22 03:47:35;;;;;;;44.38;35.60;;;4.70;99.90;;;;;;4996883;28;20084;-67
2022/03/22 03:50:05;;;;;;;45.67;35.47;;;4.70;99.90;;;;;;5000021;28;20190;-67
2022/03/22 03:52:34;;;;;;;48.90;37.30;;;4.70;99.90;;;;;;5031576;28;20104;-67
2022/03/22 03:55:00;;;;;;;43.90;35.88;;;4.70;99.90;;;;;;4999920;28;20053;-67
2022/03/22 03:57:27;;;;;;;48.95;39.42;;;4.70;99.90;;;;;;5001967;28;20096;-67
2022/03/22 03:59:54;;;;;;;47.55;36.05;;;4.70;99.90;;;;;;5000374;28;20450;-67
2022/03/22 04:02:21;;;;;;;48.45;37.03;;;4.70;99.90;;;;;;5003652;28;20458;-67
2022/03/22 04:04:51;;;;;;;47.90;37.47;;;4.70;99.90;;;;;;5029971;28;20104;-67
2022/03/22 04:07:23;;;;;;;48.63;34.63;;;4.70;99.90;;;;;;5000166;28;20050;-67
2022/03/22 04:09:49;;;;;;;44.63;36.50;;;4.70;99.90;;;;;;4995442;28;20050;-67
2022/03/22 04:12:15;;;;;;;47.33;37.58;;;4.70;99.90;;;;;;4999054;28;20046;-67
2022/03/22 04:14:41;;;;;;;46.85;37.05;;;4.70;99.90;;;;;;4995539;28;20110;-67
2022/03/22 04:17:08;;;;;;;46.75;35.70;;;4.70;99.90;;;;;;5030470;28;20100;-67
2022/03/22 04:19:35;;;;;;;51.40;38.45;;;4.70;99.90;;;;;;4996284;28;20057;-67
2022/03/22 04:22:02;;;;;;;47.35;37.85;;;4.80;99.90;;;;;;4992913;28;20046;-67
2022/03/22 04:24:28;;;;;;;43.92;35.42;;;4.80;99.90;;;;;;5023979;28;20121;-67
2022/03/22 04:32:41;;;;;;;41.65;34.70;;;4.80;99.90;;;;;;5028052;28;20103;-67
2022/03/22 04:32:43;;;;;;;49.03;37.38;;;4.70;99.90;;;;;;4998541;28;20137;-67
2022/03/22 04:35:20;;;;;;;45.35;35.75;;;4.70;99.90;;;;;;5026685;28;20050;-67
2022/03/22 04:37:52;;;;;;;42.88;35.10;;;4.80;99.90;;;;;;5000340;28;20056;-67
2022/03/22 04:40:19;;;;;;;45.22;35.47;;;4.80;99.90;;;;;;5000413;28;20139;-67
2022/03/22 04:42:47;;;;;;;48.22;36.55;;;4.80;99.90;;;;;;4998092;28;20057;-67
2022/03/22 04:45:13;;;;;;;43.47;35.65;;;4.80;99.90;;;;;;5001169;28;20046;-67
2022/03/22 04:47:40;;;;;;;46.78;37.17;;;4.80;99.90;;;;;;4998105;28;20034;-67
2022/03/22 04:50:07;;;;;;;49.50;38.25;;;4.70;99.90;;;;;;5001412;28;20180;-67
2022/03/22 04:58:02;;;;;;;46.88;36.22;;;4.80;99.90;;;;;;5028993;28;20053;-67
2022/03/22 05:00:28;;;;;;;46.65;36.60;;;4.80;99.90;;;;;;5033929;28;20418;-67
2022/03/22 05:02:54;;;;;;;43.45;35.90;;;4.80;99.90;;;;;;5028509;28;20454;-67
2022/03/22 05:06:25;;;;;;;48.47;37.92;;;4.80;99.90;;;;;;5003585;28;20179;-67
2022/03/22 05:08:06;;;;;;;45.60;36.28;;;4.80;99.90;;;;;;4998189;28;20093;-67
2022/03/22 05:10:35;;;;;;;48.25;36.33;;;4.80;99.90;;;;;;5002422;28;20046;-67
2022/03/22 05:13:02;;;;;;;49.45;37.85;;;4.80;99.90;;;;;;4996690;28;20035;-67
2022/03/22 05:15:27;;;;;;;46.10;37.75;;;4.70;99.90;;;;;;5028085;28;20514;-67
2022/03/22 05:17:56;;;;;;;46.28;36.90;;;4.70;99.90;;;;;;4992076;28;20159;-67
2022/03/22 05:20:21;;;;;;;49.95;35.58;;;4.70;99.90;;;;;;5003318;28;20034;-67
2022/03/22 05:22:48;;;;;;;41.70;35.58;;;4.70;99.90;;;;;;5013573;28;20052;-67
2022/03/22 05:25:14;;;;;;;45.88;37.42;;;4.60;99.90;;;;;;5031851;28;20125;-67
2022/03/22 05:27:40;;;;;;;44.53;35.92;;;4.60;99.90;;;;;;4991947;28;20112;-67
2022/03/22 05:30:07;;;;;;;50.72;37.80;;;4.60;99.90;;;;;;4997632;28;20047;-67
2022/03/22 05:32:33;;;;;;;46.83;34.42;;;4.60;99.90;;;;;;4988400;28;20046;-67
2022/03/22 05:34:59;;;;;;;45.55;37.30;;;4.60;99.90;;;;;;4995233;28;20080;-67
2022/03/22 05:37:25;;;;;;;47.13;37.58;;;4.60;99.90;;;;;;4975390;28;20199;-67
2022/03/22 05:39:51;;;;;;;46.60;37.80;;;4.60;99.90;;;;;;4994642;28;20046;-67
2022/03/22 05:42:17;;;;;;;44.35;36.58;;;4.60;99.90;;;;;;4990997;28;20108;-67
2022/03/22 05:44:43;;;;;;;46.95;38.45;;;4.70;99.90;;;;;;4995665;28;20042;-67
2022/03/22 05:47:09;;;;;;;44.92;35.75;;;4.70;99.90;;;;;;5011042;28;20347;-67
2022/03/22 05:49:38;;;;;;;46.63;38.33;;;4.60;99.90;;;;;;5001538;28;20033;-66
2022/03/22 05:52:06;;;;;;;49.95;37.85;;;4.60;99.90;;;;;;5013342;28;20071;-66
2022/03/22 05:54:32;;;;;;;50.40;37.05;;;4.60;99.90;;;;;;5003946;28;20125;-66
2022/03/22 05:56:58;;;;;;;46.70;35.80;;;4.70;99.90;;;;;;4999594;28;20104;-66
2022/03/22 05:59:25;;;;;;;48.85;35.90;;;4.70;99.90;;;;;;4999350;28;20100;-66
2022/03/22 06:01:50;;;;;;;45.53;36.78;;;4.70;99.90;;;;;;5030485;28;20196;-66
2022/03/22 06:04:16;;;;;;;45.67;36.33;;;4.80;99.90;;;;;;4996108;28;20038;-66
2022/03/22 06:06:42;;;;;;;47.65;37.47;;;4.80;99.90;;;;;;4998191;28;20513;-67
2022/03/22 06:09:08;;;;;;;45.17;35.95;;;4.80;99.90;;;;;;4995587;28;20051;-66
2022/03/22 06:11:35;;;;;;;46.08;36.95;;;4.80;99.90;;;;;;4998503;28;20057;-66
2022/03/22 06:14:05;;;;;;;50.13;36.08;;;4.90;99.90;;;;;;4998479;28;20092;-67
2022/03/22 06:16:31;;;;;;;43.58;36.55;;;4.90;99.90;;;;;;4999465;28;20111;-67
2022/03/22 06:18:58;;;;;;;45.17;36.42;;;4.90;99.90;;;;;;4996750;28;20104;-67
2022/03/22 06:21:23;;;;;;;47.15;35.55;;;5.00;99.90;;;;;;5000281;28;20379;-67
2022/03/22 06:23:49;;;;;;;49.53;35.75;;;5.10;99.90;;;;;;4998716;28;20194;-67
2022/03/22 06:26:15;;;;;;;53.53;42.28;;;5.20;99.90;;;;;;5006569;28;20120;-66
2022/03/22 06:28:42;;;;;;;48.97;38.10;;;5.20;99.90;;;;;;5002661;28;20057;-66
2022/03/22 06:31:08;;;;;;;45.25;36.65;;;5.30;99.90;;;;;;5003589;28;20564;-66
2022/03/22 06:33:34;;;;;;;44.63;36.40;;;5.40;99.90;;;;;;5002198;28;20030;-66
2022/03/22 06:36:00;;;;;;;47.17;35.92;;;5.60;99.90;;;;;;5036180;28;20046;-66
2022/03/22 06:38:26;;;;;;;41.50;35.72;;;5.70;99.90;;;;;;5004872;28;20054;-66
2022/03/22 06:40:53;;;;;;;41.65;34.42;;;5.80;99.90;;;;;;5035274;28;20103;-66
2022/03/22 06:43:20;;;;;;;43.25;35.63;;;5.90;99.90;;;;;;5006402;28;20045;-67
2022/03/22 06:45:47;;;;;;;45.65;35.13;;;6.00;99.90;;;;;;5017119;28;20165;-67
2022/03/22 06:48:15;;;;;;;41.63;35.92;;;6.10;99.90;;;;;;5014107;28;20483;-67
2022/03/22 06:50:43;;;;;;;45.08;34.83;;;6.30;99.90;;;;;;4999697;28;20513;-67
2022/03/22 06:53:09;;;;;;;45.78;36.47;;;6.40;99.90;;;;;;5005038;28;20075;-67
2022/03/22 06:55:37;;;;;;;45.38;37.28;;;6.50;99.90;;;;;;5008316;28;20041;-67
2022/03/22 06:58:04;;;;;;;46.45;36.35;;;6.60;99.90;;;;;;5005128;28;20710;-67
2022/03/22 07:00:31;;;;;;;40.78;34.58;;;6.80;99.90;;;;;;4998562;28;20462;-67
2022/03/22 07:02:58;;;;;;;42.15;34.88;;;7.00;99.90;;;;;;4996971;28;20049;-67
2022/03/22 07:05:24;;;;;;;40.22;34.78;;;7.10;99.90;;;;;;4999197;28;20049;-67
2022/03/22 07:07:50;;;;;;;45.33;34.85;;;7.30;99.90;;;;;;4978540;28;20501;-67
2022/03/22 07:10:18;;;;;;;42.78;34.88;;;7.40;99.90;;;;;;5001511;28;20033;-67
2022/03/22 07:12:51;;;;;;;41.65;34.08;;;7.60;99.90;;;;;;5000326;28;20030;-67
2022/03/22 07:15:18;;;;;;;41.00;32.72;;;7.80;99.90;;;;;;4994540;28;20112;-67
2022/03/22 07:17:44;;;;;;;44.47;34.20;;;8.00;99.90;;;;;;5001239;28;20046;-67
2022/03/22 07:20:10;;;;;;;38.92;33.33;;;8.20;99.90;;;;;;5005329;28;20407;-68
2022/03/22 07:22:35;;;;;;;40.13;32.90;;;8.40;99.90;;;;;;5033012;28;20578;-67
2022/03/22 07:25:01;;;;;;;41.13;32.67;;;8.70;99.90;;;;;;5005260;28;20046;-67
2022/03/22 07:27:27;;;;;;;37.30;31.70;;;9.10;99.90;;;;;;5001992;28;20052;-67
2022/03/22 07:29:53;;;;;;;41.28;32.88;;;9.60;99.90;;;;;;5001328;28;20129;-67
2022/03/22 07:32:19;;;;;;;42.42;31.88;;;10.20;99.90;;;;;;5002074;28;20042;-67
2022/03/22 07:34:45;;;;;;;36.72;31.60;;;10.70;99.90;;;;;;5033600;28;20129;-68
2022/03/22 07:37:12;;;;;;;35.85;31.92;;;11.20;99.60;;;;;;4997775;28;20140;-68
2022/03/22 07:39:38;;;;;;;35.95;32.15;;;11.60;98.80;;;;;;5001156;28;20046;-68
2022/03/22 07:42:04;;;;;;;36.22;30.98;;;12.00;97.90;;;;;;4998170;28;20394;-68
2022/03/22 07:44:31;;;;;;;35.80;31.95;;;12.40;96.60;;;;;;5001422;28;20575;-68
2022/03/22 07:46:57;;;;;;;36.22;31.50;;;12.90;96.00;;;;;;5004100;28;20057;-68
2022/03/22 07:54:51;;;;;;;37.50;29.90;;;14.20;93.00;;;;;;5000320;28;20534;-68
2022/03/22 07:57:17;;;;;;;32.50;29.20;;;14.40;92.00;;;;;;5024533;28;20127;-68
2022/03/22 07:59:43;;;;;;;32.92;29.45;;;14.70;91.20;;;;;;4993487;28;20053;-68
2022/03/22 08:02:08;;;;;;;34.10;30.17;;;14.90;89.90;;;;;;4998165;28;20481;-68
2022/03/22 08:04:34;;;;;;;31.90;28.50;;;15.10;87.60;;;;;;5033714;28;20053;-68
2022/03/22 08:07:00;;;;;;;32.88;28.23;;;15.40;84.30;;;;;;5025827;28;20065;-67
2022/03/22 08:09:26;;;;;;;31.85;27.80;;;15.60;82.60;;;;;;5001315;28;20270;-67
2022/03/22 08:11:51;;;;;;;31.33;27.15;;;16.00;82.20;;;;;;5029486;28;20413;-68
2022/03/22 08:14:19;;;;;;;32.60;29.30;;;16.50;79.80;;;;;;4998900;28;20401;-68
2022/03/22 08:16:45;;;;;;;29.83;26.48;;;16.70;78.70;;;;;;4998001;28;20153;-68
2022/03/22 08:19:17;;;;;;;29.23;26.13;;;17.00;75.80;;;;;;5002990;28;20113;-68
2022/03/22 08:21:43;;;;;;;36.42;24.15;;;17.10;73.60;;;;;;5001184;28;20427;-68
2022/03/22 08:24:09;;;;;;;29.48;26.40;;;17.40;71.80;;;;;;4999994;28;20037;-68
2022/03/22 08:26:36;;;;;;;28.60;25.70;;;17.70;70.00;;;;;;5003147;28;20085;-68
2022/03/22 08:29:03;;;;;;;29.17;24.38;;;18.00;68.20;;;;;;4998973;28;20042;-69
2022/03/22 08:31:29;;;;;;;30.27;27.15;;;18.20;67.70;;;;;;5003426;28;20030;-68
2022/03/22 08:33:56;;;;;;;27.15;24.23;;;18.50;66.30;;;;;;4998912;28;20493;-69
2022/03/22 08:36:23;;;;;;;28.38;24.23;;;18.70;63.80;;;;;;5030113;28;20486;-69
2022/03/22 08:38:49;;;;;;;29.45;24.75;;;19.00;63.20;;;;;;4996414;28;20054;-69
2022/03/22 08:41:15;;;;;;;26.20;23.60;;;19.20;61.40;;;;;;5003432;28;20053;-69
2022/03/22 08:43:42;;;;;;;27.98;25.08;;;19.30;60.90;;;;;;5006276;28;20038;-69
2022/03/22 08:46:08;;;;;;;27.58;24.75;;;19.50;60.30;;;;;;5003493;28;20045;-69
2022/03/22 08:48:37;;;;;;;27.05;24.38;;;19.70;60.20;;;;;;5003696;28;20030;-69
2022/03/22 08:51:05;;;;;;;26.85;24.02;;;19.80;59.30;;;;;;5004113;28;20092;-69
2022/03/22 08:53:33;;;;;;;25.65;23.00;;;19.90;58.30;;;;;;5002496;28;20553;-69
2022/03/22 08:56:03;;;;;;;28.10;22.90;;;20.20;58.10;;;;;;5005428;28;20041;-69
2022/03/22 08:58:28;;;;;;;27.05;22.33;;;20.50;56.90;;;;;;5006389;28;20042;-69
2022/03/22 09:00:54;;;;;;;26.63;23.88;;;20.70;55.30;;;;;;5002003;28;20045;-68
2022/03/22 09:03:22;;;;;;;26.27;23.48;;;20.80;53.70;;;;;;5004219;28;20390;-68
2022/03/22 09:08:33;;;;;;;25.10;22.63;;;21.10;52.40;;;;;;5005651;28;20052;-68
2022/03/22 09:10:58;;;;;;;26.60;23.88;;;21.30;52.10;;;;;;5007190;28;20053;-68
2022/03/22 09:13:26;;;;;;;26.60;23.80;;;21.50;52.20;;;;;;5003285;28;20037;-68
2022/03/22 09:15:52;;;;;;;25.67;22.98;;;21.70;51.90;;;;;;5008240;28;20036;-68
2022/03/22 09:18:18;;;;;;;24.45;21.85;;;22.10;50.90;;;;;;5007512;28;20124;-68
2022/03/22 09:20:45;;;;;;;25.75;23.08;;;22.30;51.10;;;;;;5004996;28;20169;-68
2022/03/22 09:23:13;;;;;;;27.58;23.48;;;22.60;50.50;;;;;;5000202;28;20034;-68
2022/03/22 09:25:43;;;;;;;23.80;21.40;;;23.00;48.90;;;;;;5003326;28;20125;-68
2022/03/22 09:28:10;;;;;;;23.35;21.15;;;23.00;48.20;;;;;;5007473;28;20176;-68
2022/03/22 09:30:40;;;;;;;25.20;21.13;;;23.10;48.30;;;;;;5004855;28;20176;-69
2022/03/22 09:33:07;;;;;;;24.00;21.67;;;23.20;47.20;;;;;;5005287;28;20050;-69
2022/03/22 09:35:35;;;;;;;23.65;21.33;;;23.30;46.90;;;;;;5009796;28;20049;-69
2022/03/22 09:38:01;;;;;;;24.42;21.80;;;23.40;46.70;;;;;;5009462;28;20062;-69
2022/03/22 09:40:27;;;;;;;26.33;21.95;;;23.60;45.90;;;;;;5007035;28;20083;-69
2022/03/22 09:42:57;;;;;;;24.70;22.27;;;23.70;45.30;;;;;;5003875;28;20053;-69
2022/03/22 09:45:26;;;;;;;25.52;22.48;;;23.70;45.10;;;;;;5011329;28;20042;-69
2022/03/22 09:47:52;;;;;;;24.35;21.90;;;23.60;44.80;;;;;;5004840;28;20398;-69
2022/03/22 09:50:20;;;;;;;25.05;21.02;;;23.70;46.20;;;;;;5002780;28;20130;-69
2022/03/22 09:52:46;;;;;;;24.77;22.08;;;23.80;45.00;;;;;;5004455;28;20077;-69
2022/03/22 09:55:16;;;;;;;24.83;22.15;;;23.90;44.30;;;;;;5009805;28;20042;-69
2022/03/22 09:57:42;;;;;;;25.42;22.88;;;23.90;45.00;;;;;;5002985;28;20108;-69
2022/03/22 10:00:12;;;;;;;25.23;22.67;;;23.80;45.00;;;;;;5006062;28;20039;-69
2022/03/22 10:02:37;;;;;;;23.75;21.35;;;23.90;45.00;;;;;;5015563;28;20084;-68
2022/03/22 10:05:04;;;;;;;26.02;23.35;;;24.00;45.10;;;;;;5007293;28;20042;-68
2022/03/22 10:07:30;;;;;;;23.83;21.45;;;24.10;44.50;;;;;;5000432;28;20048;-68
2022/03/22 10:10:05;;;;;;;26.33;23.73;;;24.10;44.80;;;;;;5006063;28;20039;-68
2022/03/22 10:12:34;;;;;;;24.35;22.05;;;24.10;45.10;;;;;;5018841;28;20081;-68
2022/03/22 10:15:11;;;;;;;24.38;21.98;;;24.00;45.30;;;;;;5004272;28;20046;-68
2022/03/22 10:17:38;;;;;;;24.40;21.83;;;24.20;45.70;;;;;;5001681;28;20038;-68
2022/03/22 10:20:06;;;;;;;24.23;21.92;;;24.20;45.10;;;;;;5002789;28;20113;-68
2022/03/22 10:22:34;;;;;;;24.27;21.92;;;24.20;44.90;;;;;;5001304;28;20050;-69
2022/03/22 10:25:02;;;;;;;24.95;22.48;;;24.30;44.60;;;;;;5007530;28;20046;-68
2022/03/22 10:27:30;;;;;;;24.98;21.15;;;24.30;44.30;;;;;;4999607;28;20053;-68
2022/03/22 10:29:57;;;;;;;24.90;22.45;;;24.40;44.00;;;;;;5034587;28;20133;-68
2022/03/22 10:32:33;;;;;;;25.02;22.50;;;24.20;43.40;;;;;;4996813;28;20070;-69
2022/03/22 10:35:17;;;;;;;24.30;21.77;;;24.10;43.40;;;;;;5002809;28;20049;-69
2022/03/22 10:37:45;;;;;;;23.00;20.80;;;24.10;43.90;;;;;;4993762;28;20401;-68
2022/03/22 10:40:29;;;;;;;22.77;20.58;;;24.30;44.10;;;;;;5008898;28;20049;-68
2022/03/22 10:43:04;;;;;;;25.00;22.35;;;24.50;43.70;;;;;;4996268;28;20050;-68
2022/03/22 10:45:41;;;;;;;24.88;22.17;;;24.60;43.50;;;;;;5002806;28;20081;-68
2022/03/22 10:48:06;;;;;;;25.42;22.15;;;24.60;44.00;;;;;;4998021;28;20122;-68
2022/03/22 10:50:37;;;;;;;25.23;22.60;;;24.60;44.10;;;;;;5001070;28;20125;-68
2022/03/22 10:53:03;;;;;;;25.48;22.40;;;24.70;42.70;;;;;;4999497;28;20081;-68
2022/03/22 10:55:29;;;;;;;24.38;22.08;;;24.60;43.50;;;;;;5002727;28;20092;-68
2022/03/22 10:57:58;;;;;;;23.80;21.38;;;24.40;43.30;;;;;;5030770;28;20149;-68
2022/03/22 11:00:25;;;;;;;23.20;20.73;;;24.20;43.80;;;;;;5004400;28;20041;-68
2022/03/22 11:02:53;;;;;;;26.08;23.55;;;24.00;43.00;;;;;;5001337;28;20510;-68
2022/03/22 11:05:21;;;;;;;23.45;21.13;;;24.00;42.70;;;;;;5005168;28;20088;-68
2022/03/22 11:07:49;;;;;;;23.38;21.08;;;23.80;43.70;;;;;;5035530;28;20189;-68
2022/03/22 11:10:18;;;;;;;23.98;21.60;;;23.70;43.30;;;;;;5005885;28;20141;-68
2022/03/22 11:12:44;;;;;;;24.67;22.23;;;23.80;45.00;;;;;;5001941;28;20093;-69
2022/03/22 11:15:12;;;;;;;24.50;21.88;;;24.00;44.80;;;;;;5003162;28;20374;-69
2022/03/22 11:17:40;;;;;;;24.20;21.70;;;24.20;44.30;;;;;;5004671;28;20088;-69
2022/03/22 11:20:08;;;;;;;24.67;21.88;;;24.30;43.10;;;;;;5005237;28;20048;-69
2022/03/22 11:22:34;;;;;;;23.88;21.33;;;24.20;43.40;;;;;;5005044;28;20038;-69
2022/03/22 11:25:16;;;;;;;24.20;21.85;;;24.20;43.90;;;;;;5000134;28;20100;-69
2022/03/22 11:27:41;;;;;;;24.55;21.85;;;24.20;42.90;;;;;;4999660;28;20490;-69
2022/03/22 11:30:08;;;;;;;25.38;21.85;;;23.80;42.30;;;;;;4996699;28;20073;-69
2022/03/22 11:35:25;;;;;;;23.77;21.33;;;24.00;43.10;;;;;;4995816;28;20119;-69
2022/03/22 11:38:00;;;;;;;24.75;22.30;;;24.20;43.20;;;;;;4995641;28;20055;-69
2022/03/22 11:43:13;;;;;;;24.67;22.00;;;24.70;42.10;;;;;;4997657;28;20053;-69
2022/03/22 11:45:50;;;;;;;23.40;20.95;;;25.00;42.30;;;;;;5000944;28;20465;-69
2022/03/22 11:48:16;;;;;;;24.77;22.38;;;25.30;41.50;;;;;;4999420;28;20045;-69
2022/03/22 11:50:46;;;;;;;25.42;22.80;;;25.40;40.80;;;;;;5003701;28;20042;-69
2022/03/22 11:53:19;;;;;;;25.50;22.85;;;25.40;40.70;;;;;;5003988;28;20041;-69
2022/03/22 11:55:49;;;;;;;24.27;21.42;;;25.30;40.50;;;;;;5002933;28;20033;-69
2022/03/22 11:58:15;;;;;;;28.67;24.75;;;25.30;40.60;;;;;;5005048;28;20117;-69
2022/03/22 12:00:46;;;;;;;25.50;22.75;;;25.50;41.20;;;;;;5002684;28;20549;-69
2022/03/22 12:03:16;;;;;;;23.95;21.48;;;25.40;39.90;;;;;;5003664;28;20041;-69
2022/03/22 12:05:42;;;;;;;25.38;22.60;;;25.20;40.50;;;;;;5003616;28;20078;-69
2022/03/22 12:08:15;;;;;;;26.05;23.25;;;25.30;40.30;;;;;;5003057;28;20486;-69
2022/03/22 12:10:59;;;;;;;24.23;21.67;;;25.50;40.90;;;;;;4999382;28;20520;-69
2022/03/22 12:13:26;;;;;;;24.63;22.02;;;25.60;39.50;;;;;;5002547;28;20432;-69
2022/03/22 12:15:59;;;;;;;26.15;22.50;;;25.60;39.70;;;;;;4997180;28;20050;-69
2022/03/22 12:18:29;;;;;;;;;;;25.40;40.10;;;;;;5000542;28;20035;-69
2022/03/22 12:20:56;;;;;;;25.90;23.20;;;25.40;39.50;;;;;;4998249;28;20220;-69
2022/03/22 12:23:22;;;;;;;24.20;21.63;;;25.40;40.50;;;;;;4999542;28;20121;-69
2022/03/22 12:25:49;;;;;;;24.55;21.80;;;25.70;40.80;;;;;;4995490;28;20046;-69
2022/03/22 12:28:16;;;;;;;28.50;23.30;;;25.80;39.30;;;;;;4997982;28;20044;-69
2022/03/22 12:30:44;;;;;;;26.02;22.70;;;25.90;38.80;;;;;;4998519;28;20122;-69
2022/03/22 12:33:13;;;;;;;28.02;22.60;;;26.00;39.10;;;;;;4996953;28;20044;-69
2022/03/22 12:35:43;;;;;;;28.30;23.98;;;25.90;39.00;;;;;;4997037;28;20054;-69
2022/03/22 12:38:10;;;;;;;28.63;23.95;;;26.00;39.00;;;;;;4995509;28;20100;-69
2022/03/22 12:40:37;;;;;;;27.23;23.25;;;26.10;38.40;;;;;;5001130;28;20036;-69
2022/03/22 12:43:05;;;;;;;24.80;21.77;;;26.20;39.10;;;;;;5029192;28;20078;-69
2022/03/22 12:45:34;;;;;;;26.10;23.42;;;26.40;38.20;;;;;;5007564;28;20061;-68
2022/03/22 12:48:01;;;;;;;25.75;22.83;;;26.40;38.20;;;;;;5002184;28;20200;-68
2022/03/22 12:50:27;;;;;;;25.05;21.50;;;26.40;37.90;;;;;;5002749;28;20050;-68
2022/03/22 12:52:55;;;;;;;26.25;21.70;;;26.30;38.40;;;;;;5032750;28;20049;-68
2022/03/22 12:55:22;;;;;;;26.48;22.85;;;26.30;37.20;;;;;;5000938;28;20038;-68
2022/03/22 12:57:51;;;;;;;24.75;22.00;;;26.20;37.50;;;;;;4997915;28;20042;-68
2022/03/22 13:00:34;;;;;;;22.67;20.30;;;26.20;37.10;;;;;;4999078;28;20115;-68
2022/03/22 13:03:11;;;;;;;22.88;20.17;;;26.00;37.20;;;;;;4995111;28;20052;-68
2022/03/22 13:05:45;;;;;;;22.63;18.42;;;26.00;37.50;;;;;;4999701;28;20046;-68